sensor_id;sensor_type;location;lat;lon;timestamp;P1;durP1;ratioP1;P2;durP2;ratioP2
789;SDS011;378;48.844;9.156;2023-12-20T00:00:22;1.50;;;1.20;;
789;SDS011;378;48.844;9.156;2023-12-20T00:02:49;1.85;;;1.15;;
789;SDS011;378;48.844;9.156;2023-12-20T00:05:16;1.42;;;1.25;;
789;SDS011;378;48.844;9.156;2023-12-20T00:07:43;2.58;;;1.35;;
789;SDS011;378;48.844;9.156;2023-12-20T00:10:09;1.42;;;1.15;;
789;SDS011;378;48.844;9.156;2023-12-20T00:12:38;2.03;;;1.33;;
789;SDS011;378;48.844;9.156;2023-12-20T00:15:06;2.60;;;1.30;;
789;SDS011;378;48.844;9.156;2023-12-20T00:17:34;1.80;;;1.20;;
789;SDS011;378;48.844;9.156;2023-12-20T00:20:01;1.33;;;1.15;;
789;SDS011;378;48.844;9.156;2023-12-20T00:22:28;1.90;;;1.30;;
789;SDS011;378;48.844;9.156;2023-12-20T00:24:55;1.63;;;1.20;;
789;SDS011;378;48.844;9.156;2023-12-20T00:27:21;5.22;;;1.40;;
789;SDS011;378;48.844;9.156;2023-12-20T00:29:49;1.73;;;1.20;;
789;SDS011;378;48.844;9.156;2023-12-20T00:32:15;1.52;;;1.13;;
789;SDS011;378;48.844;9.156;2023-12-20T00:34:44;1.65;;;1.33;;
789;SDS011;378;48.844;9.156;2023-12-20T00:37:11;2.95;;;1.13;;
789;SDS011;378;48.844;9.156;2023-12-20T00:39:38;2.92;;;1.35;;
789;SDS011;378;48.844;9.156;2023-12-20T00:42:04;2.90;;;1.35;;
789;SDS011;378;48.844;9.156;2023-12-20T00:44:31;2.33;;;1.30;;
789;SDS011;378;48.844;9.156;2023-12-20T00:46:58;2.15;;;1.30;;
789;SDS011;378;48.844;9.156;2023-12-20T00:49:26;2.13;;;1.48;;
789;SDS011;378;48.844;9.156;2023-12-20T00:51:54;1.45;;;1.30;;
789;SDS011;378;48.844;9.156;2023-12-20T00:54:21;2.50;;;1.50;;
789;SDS011;378;48.844;9.156;2023-12-20T00:56:48;2.30;;;1.40;;
789;SDS011;378;48.844;9.156;2023-12-20T00:59:15;3.22;;;1.52;;
789;SDS011;378;48.844;9.156;2023-12-20T01:01:42;2.17;;;1.63;;
789;SDS011;378;48.844;9.156;2023-12-20T01:04:09;2.80;;;1.73;;
789;SDS011;378;48.844;9.156;2023-12-20T01:06:36;2.05;;;1.48;;
789;SDS011;378;48.844;9.156;2023-12-20T01:09:05;5.95;;;1.77;;
789;SDS011;378;48.844;9.156;2023-12-20T01:11:31;2.25;;;1.45;;
789;SDS011;378;48.844;9.156;2023-12-20T01:13:58;4.50;;;1.70;;
789;SDS011;378;48.844;9.156;2023-12-20T01:16:25;5.95;;;1.90;;
789;SDS011;378;48.844;9.156;2023-12-20T01:18:52;2.85;;;2.03;;
789;SDS011;378;48.844;9.156;2023-12-20T01:21:19;2.45;;;1.95;;
789;SDS011;378;48.844;9.156;2023-12-20T01:23:45;5.55;;;2.15;;
789;SDS011;378;48.844;9.156;2023-12-20T01:26:14;3.00;;;1.92;;
789;SDS011;378;48.844;9.156;2023-12-20T01:28:41;5.72;;;2.00;;
789;SDS011;378;48.844;9.156;2023-12-20T01:31:08;4.35;;;2.28;;
789;SDS011;378;48.844;9.156;2023-12-20T01:33:35;5.78;;;2.30;;
789;SDS011;378;48.844;9.156;2023-12-20T01:36:02;3.75;;;2.50;;
789;SDS011;378;48.844;9.156;2023-12-20T01:38:29;4.57;;;2.33;;
789;SDS011;378;48.844;9.156;2023-12-20T01:40:57;4.70;;;2.65;;
789;SDS011;378;48.844;9.156;2023-12-20T01:43:25;4.60;;;2.40;;
789;SDS011;378;48.844;9.156;2023-12-20T01:45:52;4.43;;;2.25;;
789;SDS011;378;48.844;9.156;2023-12-20T01:48:21;3.50;;;2.30;;
789;SDS011;378;48.844;9.156;2023-12-20T01:50:48;6.18;;;2.70;;
789;SDS011;378;48.844;9.156;2023-12-20T01:53:15;5.03;;;2.30;;
789;SDS011;378;48.844;9.156;2023-12-20T01:55:43;4.15;;;2.50;;
789;SDS011;378;48.844;9.156;2023-12-20T01:58:10;5.38;;;2.70;;
789;SDS011;378;48.844;9.156;2023-12-20T02:00:40;2.55;;;2.15;;
789;SDS011;378;48.844;9.156;2023-12-20T02:03:07;3.08;;;2.15;;
789;SDS011;378;48.844;9.156;2023-12-20T02:05:35;4.95;;;2.20;;
789;SDS011;378;48.844;9.156;2023-12-20T02:08:03;4.43;;;2.25;;
789;SDS011;378;48.844;9.156;2023-12-20T02:10:31;5.32;;;2.15;;
789;SDS011;378;48.844;9.156;2023-12-20T02:12:58;6.10;;;2.40;;
789;SDS011;378;48.844;9.156;2023-12-20T02:15:25;4.38;;;2.30;;
789;SDS011;378;48.844;9.156;2023-12-20T02:17:53;3.92;;;2.25;;
789;SDS011;378;48.844;9.156;2023-12-20T02:20:20;2.63;;;2.00;;
789;SDS011;378;48.844;9.156;2023-12-20T02:22:48;3.42;;;2.47;;
789;SDS011;378;48.844;9.156;2023-12-20T02:25:15;6.18;;;2.03;;
789;SDS011;378;48.844;9.156;2023-12-20T02:27:42;5.93;;;2.25;;
789;SDS011;378;48.844;9.156;2023-12-20T02:30:09;3.63;;;2.05;;
789;SDS011;378;48.844;9.156;2023-12-20T02:32:37;4.25;;;2.08;;
789;SDS011;378;48.844;9.156;2023-12-20T02:35:03;3.45;;;1.75;;
789;SDS011;378;48.844;9.156;2023-12-20T02:37:30;3.08;;;1.70;;
789;SDS011;378;48.844;9.156;2023-12-20T02:40:00;3.85;;;1.80;;
789;SDS011;378;48.844;9.156;2023-12-20T02:42:27;3.03;;;1.67;;
789;SDS011;378;48.844;9.156;2023-12-20T02:44:53;1.98;;;1.40;;
789;SDS011;378;48.844;9.156;2023-12-20T02:47:20;2.55;;;1.50;;
789;SDS011;378;48.844;9.156;2023-12-20T02:49:47;3.22;;;1.30;;
789;SDS011;378;48.844;9.156;2023-12-20T02:52:14;3.83;;;1.50;;
789;SDS011;378;48.844;9.156;2023-12-20T02:54:41;1.25;;;1.15;;
789;SDS011;378;48.844;9.156;2023-12-20T02:57:09;2.35;;;0.98;;
789;SDS011;378;48.844;9.156;2023-12-20T02:59:36;2.47;;;0.75;;
789;SDS011;378;48.844;9.156;2023-12-20T03:02:02;0.88;;;0.70;;
789;SDS011;378;48.844;9.156;2023-12-20T03:04:29;0.65;;;0.52;;
789;SDS011;378;48.844;9.156;2023-12-20T03:06:56;0.60;;;0.60;;
789;SDS011;378;48.844;9.156;2023-12-20T03:09:23;0.60;;;0.60;;
789;SDS011;378;48.844;9.156;2023-12-20T03:11:50;0.57;;;0.55;;
789;SDS011;378;48.844;9.156;2023-12-20T03:14:18;0.50;;;0.50;;
789;SDS011;378;48.844;9.156;2023-12-20T03:16:46;0.77;;;0.50;;
789;SDS011;378;48.844;9.156;2023-12-20T03:19:15;1.65;;;0.60;;
789;SDS011;378;48.844;9.156;2023-12-20T03:21:42;0.35;;;0.35;;
789;SDS011;378;48.844;9.156;2023-12-20T03:24:09;0.60;;;0.60;;
789;SDS011;378;48.844;9.156;2023-12-20T03:26:35;0.30;;;0.30;;
789;SDS011;378;48.844;9.156;2023-12-20T03:29:02;1.48;;;0.40;;
789;SDS011;378;48.844;9.156;2023-12-20T03:31:30;0.52;;;0.50;;
789;SDS011;378;48.844;9.156;2023-12-20T03:33:57;0.50;;;0.50;;
789;SDS011;378;48.844;9.156;2023-12-20T03:36:24;1.27;;;0.50;;
789;SDS011;378;48.844;9.156;2023-12-20T03:38:51;7.47;;;0.75;;
789;SDS011;378;48.844;9.156;2023-12-20T03:41:18;0.50;;;0.50;;
789;SDS011;378;48.844;9.156;2023-12-20T03:43:44;1.17;;;0.50;;
789;SDS011;378;48.844;9.156;2023-12-20T03:46:11;0.65;;;0.57;;
789;SDS011;378;48.844;9.156;2023-12-20T03:48:39;0.50;;;0.50;;
789;SDS011;378;48.844;9.156;2023-12-20T03:51:06;0.50;;;0.50;;
789;SDS011;378;48.844;9.156;2023-12-20T03:53:33;0.50;;;0.50;;
789;SDS011;378;48.844;9.156;2023-12-20T03:56:00;0.98;;;0.68;;
789;SDS011;378;48.844;9.156;2023-12-20T03:58:26;1.05;;;0.40;;
789;SDS011;378;48.844;9.156;2023-12-20T04:00:52;0.50;;;0.50;;
789;SDS011;378;48.844;9.156;2023-12-20T04:03:19;0.45;;;0.45;;
789;SDS011;378;48.844;9.156;2023-12-20T04:05:48;0.50;;;0.50;;
789;SDS011;378;48.844;9.156;2023-12-20T04:08:14;0.50;;;0.50;;
789;SDS011;378;48.844;9.156;2023-12-20T04:10:41;0.60;;;0.57;;
789;SDS011;378;48.844;9.156;2023-12-20T04:13:08;0.50;;;0.50;;
789;SDS011;378;48.844;9.156;2023-12-20T04:15:35;0.60;;;0.60;;
789;SDS011;378;48.844;9.156;2023-12-20T04:18:02;0.50;;;0.50;;
789;SDS011;378;48.844;9.156;2023-12-20T04:20:29;0.50;;;0.50;;
789;SDS011;378;48.844;9.156;2023-12-20T04:22:57;0.77;;;0.55;;
789;SDS011;378;48.844;9.156;2023-12-20T04:25:24;0.60;;;0.50;;
789;SDS011;378;48.844;9.156;2023-12-20T04:27:51;0.88;;;0.50;;
789;SDS011;378;48.844;9.156;2023-12-20T04:30:18;0.60;;;0.60;;
789;SDS011;378;48.844;9.156;2023-12-20T04:32:45;0.50;;;0.50;;
789;SDS011;378;48.844;9.156;2023-12-20T04:35:12;1.35;;;0.80;;
789;SDS011;378;48.844;9.156;2023-12-20T04:37:39;0.80;;;0.60;;
789;SDS011;378;48.844;9.156;2023-12-20T04:40:07;1.58;;;0.50;;
789;SDS011;378;48.844;9.156;2023-12-20T04:42:35;1.02;;;0.70;;
789;SDS011;378;48.844;9.156;2023-12-20T04:45:01;0.55;;;0.55;;
789;SDS011;378;48.844;9.156;2023-12-20T04:47:28;0.50;;;0.50;;
789;SDS011;378;48.844;9.156;2023-12-20T04:49:55;0.80;;;0.60;;
789;SDS011;378;48.844;9.156;2023-12-20T04:52:22;0.73;;;0.50;;
789;SDS011;378;48.844;9.156;2023-12-20T04:54:49;0.68;;;0.60;;
789;SDS011;378;48.844;9.156;2023-12-20T04:57:17;0.52;;;0.52;;
789;SDS011;378;48.844;9.156;2023-12-20T04:59:44;2.47;;;0.60;;
789;SDS011;378;48.844;9.156;2023-12-20T05:02:11;0.40;;;0.40;;
789;SDS011;378;48.844;9.156;2023-12-20T05:04:38;2.20;;;0.73;;
789;SDS011;378;48.844;9.156;2023-12-20T05:07:04;0.43;;;0.43;;
789;SDS011;378;48.844;9.156;2023-12-20T05:09:31;1.85;;;0.88;;
789;SDS011;378;48.844;9.156;2023-12-20T05:11:58;1.10;;;0.80;;
789;SDS011;378;48.844;9.156;2023-12-20T05:14:26;0.73;;;0.70;;
789;SDS011;378;48.844;9.156;2023-12-20T05:16:53;1.17;;;0.55;;
789;SDS011;378;48.844;9.156;2023-12-20T05:19:21;0.50;;;0.50;;
789;SDS011;378;48.844;9.156;2023-12-20T05:21:49;1.55;;;0.60;;
789;SDS011;378;48.844;9.156;2023-12-20T05:24:15;0.60;;;0.50;;
789;SDS011;378;48.844;9.156;2023-12-20T05:26:42;0.50;;;0.50;;
789;SDS011;378;48.844;9.156;2023-12-20T05:29:09;2.58;;;1.02;;
789;SDS011;378;48.844;9.156;2023-12-20T05:31:37;1.88;;;0.70;;
789;SDS011;378;48.844;9.156;2023-12-20T05:34:04;2.22;;;0.60;;
789;SDS011;378;48.844;9.156;2023-12-20T05:36:31;1.10;;;0.65;;
789;SDS011;378;48.844;9.156;2023-12-20T05:38:58;1.02;;;0.73;;
789;SDS011;378;48.844;9.156;2023-12-20T05:41:25;1.20;;;0.90;;
789;SDS011;378;48.844;9.156;2023-12-20T05:43:52;0.70;;;0.70;;
789;SDS011;378;48.844;9.156;2023-12-20T05:46:19;1.27;;;1.00;;
789;SDS011;378;48.844;9.156;2023-12-20T05:48:49;1.10;;;1.00;;
789;SDS011;378;48.844;9.156;2023-12-20T05:51:16;1.40;;;1.30;;
789;SDS011;378;48.844;9.156;2023-12-20T05:53:43;1.40;;;1.20;;
789;SDS011;378;48.844;9.156;2023-12-20T05:56:10;1.63;;;1.20;;
789;SDS011;378;48.844;9.156;2023-12-20T05:58:38;1.40;;;1.17;;
789;SDS011;378;48.844;9.156;2023-12-20T06:01:05;4.72;;;1.20;;
789;SDS011;378;48.844;9.156;2023-12-20T06:03:33;1.45;;;1.10;;
789;SDS011;378;48.844;9.156;2023-12-20T06:06:05;2.40;;;0.95;;
789;SDS011;378;48.844;9.156;2023-12-20T06:08:32;2.85;;;1.10;;
789;SDS011;378;48.844;9.156;2023-12-20T06:10:59;2.50;;;1.20;;
789;SDS011;378;48.844;9.156;2023-12-20T06:13:26;6.28;;;1.10;;
789;SDS011;378;48.844;9.156;2023-12-20T06:15:53;1.75;;;1.10;;
789;SDS011;378;48.844;9.156;2023-12-20T06:18:20;1.52;;;1.02;;
789;SDS011;378;48.844;9.156;2023-12-20T06:20:47;3.67;;;1.20;;
789;SDS011;378;48.844;9.156;2023-12-20T06:23:16;2.13;;;1.23;;
789;SDS011;378;48.844;9.156;2023-12-20T06:25:43;3.33;;;1.20;;
789;SDS011;378;48.844;9.156;2023-12-20T06:28:10;3.08;;;1.10;;
789;SDS011;378;48.844;9.156;2023-12-20T06:30:39;1.33;;;1.08;;
789;SDS011;378;48.844;9.156;2023-12-20T06:33:06;2.53;;;1.30;;
789;SDS011;378;48.844;9.156;2023-12-20T06:35:34;1.58;;;1.10;;
789;SDS011;378;48.844;9.156;2023-12-20T06:38:01;4.80;;;1.40;;
789;SDS011;378;48.844;9.156;2023-12-20T06:40:30;3.17;;;1.30;;
789;SDS011;378;48.844;9.156;2023-12-20T06:42:57;3.47;;;1.50;;
789;SDS011;378;48.844;9.156;2023-12-20T06:45:24;3.63;;;1.70;;
789;SDS011;378;48.844;9.156;2023-12-20T06:47:51;2.70;;;1.70;;
789;SDS011;378;48.844;9.156;2023-12-20T06:50:22;3.75;;;1.55;;
789;SDS011;378;48.844;9.156;2023-12-20T06:52:49;2.95;;;1.80;;
789;SDS011;378;48.844;9.156;2023-12-20T06:55:16;4.53;;;2.05;;
789;SDS011;378;48.844;9.156;2023-12-20T06:57:45;2.95;;;2.03;;
789;SDS011;378;48.844;9.156;2023-12-20T07:00:12;5.82;;;2.67;;
789;SDS011;378;48.844;9.156;2023-12-20T07:02:39;4.75;;;3.05;;
789;SDS011;378;48.844;9.156;2023-12-20T07:05:06;4.28;;;3.60;;
789;SDS011;378;48.844;9.156;2023-12-20T07:07:34;5.70;;;3.97;;
789;SDS011;378;48.844;9.156;2023-12-20T07:10:00;7.47;;;3.97;;
789;SDS011;378;48.844;9.156;2023-12-20T07:12:27;8.45;;;4.90;;
789;SDS011;378;48.844;9.156;2023-12-20T07:14:55;6.88;;;4.45;;
789;SDS011;378;48.844;9.156;2023-12-20T07:19:50;12.00;;;5.07;;
789;SDS011;378;48.844;9.156;2023-12-20T07:22:17;8.30;;;4.93;;
789;SDS011;378;48.844;9.156;2023-12-20T07:24:44;6.85;;;4.25;;
789;SDS011;378;48.844;9.156;2023-12-20T07:27:11;7.68;;;5.20;;
789;SDS011;378;48.844;9.156;2023-12-20T07:29:38;5.85;;;4.07;;
789;SDS011;378;48.844;9.156;2023-12-20T07:32:06;9.50;;;4.20;;
789;SDS011;378;48.844;9.156;2023-12-20T07:34:33;5.43;;;3.80;;
789;SDS011;378;48.844;9.156;2023-12-20T07:37:00;5.57;;;3.78;;
789;SDS011;378;48.844;9.156;2023-12-20T07:39:27;5.05;;;3.22;;
789;SDS011;378;48.844;9.156;2023-12-20T07:41:53;7.82;;;3.90;;
789;SDS011;378;48.844;9.156;2023-12-20T07:44:20;7.32;;;4.20;;
789;SDS011;378;48.844;9.156;2023-12-20T07:46:47;7.55;;;4.40;;
789;SDS011;378;48.844;9.156;2023-12-20T07:49:15;8.13;;;4.20;;
789;SDS011;378;48.844;9.156;2023-12-20T07:51:41;6.03;;;4.32;;
789;SDS011;378;48.844;9.156;2023-12-20T07:54:08;5.65;;;3.67;;
789;SDS011;378;48.844;9.156;2023-12-20T07:56:35;5.85;;;4.00;;
789;SDS011;378;48.844;9.156;2023-12-20T07:59:02;5.10;;;3.50;;
789;SDS011;378;48.844;9.156;2023-12-20T08:01:28;5.57;;;4.07;;
789;SDS011;378;48.844;9.156;2023-12-20T08:03:55;5.40;;;3.80;;
789;SDS011;378;48.844;9.156;2023-12-20T08:06:23;5.22;;;3.88;;
789;SDS011;378;48.844;9.156;2023-12-20T08:08:50;4.82;;;4.07;;
789;SDS011;378;48.844;9.156;2023-12-20T08:11:17;5.63;;;3.50;;
789;SDS011;378;48.844;9.156;2023-12-20T08:13:44;6.65;;;4.25;;
789;SDS011;378;48.844;9.156;2023-12-20T08:16:10;7.30;;;4.30;;
789;SDS011;378;48.844;9.156;2023-12-20T08:18:38;6.45;;;4.28;;
789;SDS011;378;48.844;9.156;2023-12-20T08:21:05;7.70;;;3.97;;
789;SDS011;378;48.844;9.156;2023-12-20T08:23:34;6.70;;;3.97;;
789;SDS011;378;48.844;9.156;2023-12-20T08:26:03;8.52;;;4.60;;
789;SDS011;378;48.844;9.156;2023-12-20T08:28:30;10.98;;;4.65;;
789;SDS011;378;48.844;9.156;2023-12-20T08:30:57;8.02;;;4.43;;
789;SDS011;378;48.844;9.156;2023-12-20T08:33:24;9.10;;;4.28;;
789;SDS011;378;48.844;9.156;2023-12-20T08:35:51;7.07;;;4.25;;
789;SDS011;378;48.844;9.156;2023-12-20T08:38:17;4.78;;;3.60;;
789;SDS011;378;48.844;9.156;2023-12-20T08:40:46;8.57;;;4.30;;
789;SDS011;378;48.844;9.156;2023-12-20T08:43:13;6.60;;;3.90;;
789;SDS011;378;48.844;9.156;2023-12-20T08:45:40;5.90;;;3.72;;
789;SDS011;378;48.844;9.156;2023-12-20T08:48:07;6.20;;;3.72;;
789;SDS011;378;48.844;9.156;2023-12-20T08:50:33;9.95;;;4.38;;
789;SDS011;378;48.844;9.156;2023-12-20T08:53:01;8.15;;;4.30;;
789;SDS011;378;48.844;9.156;2023-12-20T08:55:28;6.95;;;4.22;;
789;SDS011;378;48.844;9.156;2023-12-20T08:57:57;12.20;;;4.45;;
789;SDS011;378;48.844;9.156;2023-12-20T09:00:24;8.50;;;4.15;;
789;SDS011;378;48.844;9.156;2023-12-20T09:02:52;6.28;;;4.30;;
789;SDS011;378;48.844;9.156;2023-12-20T09:05:20;5.45;;;3.88;;
789;SDS011;378;48.844;9.156;2023-12-20T09:07:47;7.05;;;4.30;;
789;SDS011;378;48.844;9.156;2023-12-20T09:10:14;10.80;;;4.10;;
789;SDS011;378;48.844;9.156;2023-12-20T09:12:40;7.95;;;4.45;;
789;SDS011;378;48.844;9.156;2023-12-20T09:15:09;10.65;;;5.30;;
789;SDS011;378;48.844;9.156;2023-12-20T09:17:35;7.78;;;3.97;;
789;SDS011;378;48.844;9.156;2023-12-20T09:20:02;7.60;;;4.20;;
789;SDS011;378;48.844;9.156;2023-12-20T09:22:31;7.20;;;3.80;;
789;SDS011;378;48.844;9.156;2023-12-20T09:24:58;8.50;;;3.80;;
789;SDS011;378;48.844;9.156;2023-12-20T09:27:26;10.88;;;3.63;;
789;SDS011;378;48.844;9.156;2023-12-20T09:29:53;5.53;;;2.80;;
789;SDS011;378;48.844;9.156;2023-12-20T09:32:21;6.47;;;2.92;;
789;SDS011;378;48.844;9.156;2023-12-20T09:34:48;4.60;;;2.55;;
789;SDS011;378;48.844;9.156;2023-12-20T09:37:15;8.15;;;2.47;;
789;SDS011;378;48.844;9.156;2023-12-20T09:39:41;8.00;;;2.50;;
789;SDS011;378;48.844;9.156;2023-12-20T09:42:08;10.52;;;2.38;;
789;SDS011;378;48.844;9.156;2023-12-20T09:44:39;5.72;;;2.65;;
789;SDS011;378;48.844;9.156;2023-12-20T09:47:07;10.45;;;2.50;;
789;SDS011;378;48.844;9.156;2023-12-20T09:49:36;5.75;;;2.00;;
789;SDS011;378;48.844;9.156;2023-12-20T09:52:04;6.35;;;1.92;;
789;SDS011;378;48.844;9.156;2023-12-20T09:54:33;4.05;;;1.58;;
789;SDS011;378;48.844;9.156;2023-12-20T09:57:00;7.95;;;1.80;;
789;SDS011;378;48.844;9.156;2023-12-20T09:59:27;7.50;;;2.13;;
789;SDS011;378;48.844;9.156;2023-12-20T10:01:54;6.95;;;1.83;;
789;SDS011;378;48.844;9.156;2023-12-20T10:04:31;9.55;;;1.73;;
789;SDS011;378;48.844;9.156;2023-12-20T10:07:03;5.25;;;1.70;;
789;SDS011;378;48.844;9.156;2023-12-20T10:09:33;6.20;;;1.85;;
789;SDS011;378;48.844;9.156;2023-12-20T10:12:03;3.88;;;1.40;;
789;SDS011;378;48.844;9.156;2023-12-20T10:14:36;11.48;;;1.60;;
789;SDS011;378;48.844;9.156;2023-12-20T10:17:05;9.13;;;1.55;;
789;SDS011;378;48.844;9.156;2023-12-20T10:19:32;6.43;;;1.55;;
789;SDS011;378;48.844;9.156;2023-12-20T10:22:00;6.13;;;1.67;;
789;SDS011;378;48.844;9.156;2023-12-20T10:24:29;10.20;;;1.90;;
789;SDS011;378;48.844;9.156;2023-12-20T10:27:03;5.18;;;1.80;;
789;SDS011;378;48.844;9.156;2023-12-20T10:32:22;4.80;;;1.77;;
789;SDS011;378;48.844;9.156;2023-12-20T10:34:55;12.63;;;2.15;;
789;SDS011;378;48.844;9.156;2023-12-20T10:37:22;5.10;;;1.73;;
789;SDS011;378;48.844;9.156;2023-12-20T10:39:58;4.82;;;1.73;;
789;SDS011;378;48.844;9.156;2023-12-20T10:42:29;6.75;;;1.98;;
789;SDS011;378;48.844;9.156;2023-12-20T10:52:16;13.55;;;2.08;;
789;SDS011;378;48.844;9.156;2023-12-20T10:55:28;5.25;;;1.65;;
789;SDS011;378;48.844;9.156;2023-12-20T10:58:06;6.32;;;1.48;;
789;SDS011;378;48.844;9.156;2023-12-20T11:01:06;11.73;;;1.92;;
789;SDS011;378;48.844;9.156;2023-12-20T11:03:35;8.55;;;1.63;;
789;SDS011;378;48.844;9.156;2023-12-20T11:06:04;4.95;;;1.65;;
789;SDS011;378;48.844;9.156;2023-12-20T11:08:38;8.77;;;1.60;;
789;SDS011;378;48.844;9.156;2023-12-20T11:11:14;6.13;;;1.40;;
789;SDS011;378;48.844;9.156;2023-12-20T11:13:53;3.83;;;1.10;;
789;SDS011;378;48.844;9.156;2023-12-20T11:16:23;9.15;;;1.92;;
789;SDS011;378;48.844;9.156;2023-12-20T11:18:50;6.85;;;1.70;;
789;SDS011;378;48.844;9.156;2023-12-20T11:21:17;6.72;;;2.75;;
789;SDS011;378;48.844;9.156;2023-12-20T11:23:45;10.35;;;1.73;;
789;SDS011;378;48.844;9.156;2023-12-20T11:26:15;7.22;;;1.95;;
789;SDS011;378;48.844;9.156;2023-12-20T11:28:42;5.82;;;1.63;;
789;SDS011;378;48.844;9.156;2023-12-20T11:31:09;7.97;;;1.33;;
789;SDS011;378;48.844;9.156;2023-12-20T11:33:42;8.68;;;1.85;;
789;SDS011;378;48.844;9.156;2023-12-20T11:36:12;7.65;;;1.77;;
789;SDS011;378;48.844;9.156;2023-12-20T11:38:49;10.48;;;1.98;;
789;SDS011;378;48.844;9.156;2023-12-20T11:41:23;11.88;;;1.70;;
789;SDS011;378;48.844;9.156;2023-12-20T11:43:52;6.65;;;1.50;;
789;SDS011;378;48.844;9.156;2023-12-20T11:46:18;6.20;;;2.00;;
789;SDS011;378;48.844;9.156;2023-12-20T11:48:45;8.30;;;1.65;;
789;SDS011;378;48.844;9.156;2023-12-20T11:51:14;7.85;;;1.60;;
789;SDS011;378;48.844;9.156;2023-12-20T11:53:40;6.80;;;1.52;;
789;SDS011;378;48.844;9.156;2023-12-20T11:56:10;6.65;;;1.42;;
789;SDS011;378;48.844;9.156;2023-12-20T11:58:38;7.03;;;2.13;;
789;SDS011;378;48.844;9.156;2023-12-20T12:01:06;8.15;;;2.10;;
789;SDS011;378;48.844;9.156;2023-12-20T12:03:33;5.82;;;1.60;;
789;SDS011;378;48.844;9.156;2023-12-20T12:06:03;12.50;;;2.22;;
789;SDS011;378;48.844;9.156;2023-12-20T12:08:31;10.02;;;2.03;;
789;SDS011;378;48.844;9.156;2023-12-20T12:10:58;5.95;;;2.00;;
789;SDS011;378;48.844;9.156;2023-12-20T12:13:25;12.25;;;2.10;;
789;SDS011;378;48.844;9.156;2023-12-20T12:15:54;9.48;;;2.35;;
789;SDS011;378;48.844;9.156;2023-12-20T12:18:21;4.82;;;2.10;;
789;SDS011;378;48.844;9.156;2023-12-20T12:20:48;7.47;;;2.20;;
789;SDS011;378;48.844;9.156;2023-12-20T12:23:15;9.68;;;2.05;;
789;SDS011;378;48.844;9.156;2023-12-20T12:25:49;7.75;;;1.83;;
789;SDS011;378;48.844;9.156;2023-12-20T12:28:16;5.65;;;1.52;;
789;SDS011;378;48.844;9.156;2023-12-20T12:30:43;5.53;;;1.80;;
789;SDS011;378;48.844;9.156;2023-12-20T12:33:24;4.90;;;1.90;;
789;SDS011;378;48.844;9.156;2023-12-20T12:35:51;7.35;;;2.22;;
789;SDS011;378;48.844;9.156;2023-12-20T12:38:19;8.88;;;1.92;;
789;SDS011;378;48.844;9.156;2023-12-20T12:40:46;8.18;;;1.75;;
789;SDS011;378;48.844;9.156;2023-12-20T12:43:13;8.48;;;1.83;;
789;SDS011;378;48.844;9.156;2023-12-20T12:45:40;8.43;;;2.35;;
789;SDS011;378;48.844;9.156;2023-12-20T12:48:09;8.63;;;2.67;;
789;SDS011;378;48.844;9.156;2023-12-20T12:50:36;6.75;;;1.27;;
789;SDS011;378;48.844;9.156;2023-12-20T12:53:03;12.40;;;3.05;;
789;SDS011;378;48.844;9.156;2023-12-20T12:55:30;7.45;;;1.55;;
789;SDS011;378;48.844;9.156;2023-12-20T12:57:57;6.10;;;1.25;;
789;SDS011;378;48.844;9.156;2023-12-20T13:00:24;6.95;;;1.60;;
789;SDS011;378;48.844;9.156;2023-12-20T13:02:51;10.52;;;1.70;;
789;SDS011;378;48.844;9.156;2023-12-20T13:05:19;7.05;;;1.50;;
789;SDS011;378;48.844;9.156;2023-12-20T13:07:46;5.78;;;1.80;;
789;SDS011;378;48.844;9.156;2023-12-20T13:10:13;4.75;;;1.15;;
789;SDS011;378;48.844;9.156;2023-12-20T13:12:41;4.72;;;1.25;;
789;SDS011;378;48.844;9.156;2023-12-20T13:15:08;7.40;;;1.40;;
789;SDS011;378;48.844;9.156;2023-12-20T13:17:35;3.05;;;1.17;;
789;SDS011;378;48.844;9.156;2023-12-20T13:20:02;4.70;;;1.15;;
789;SDS011;378;48.844;9.156;2023-12-20T13:22:34;5.85;;;1.27;;
789;SDS011;378;48.844;9.156;2023-12-20T13:25:01;2.03;;;0.90;;
789;SDS011;378;48.844;9.156;2023-12-20T13:27:28;2.15;;;1.27;;
789;SDS011;378;48.844;9.156;2023-12-20T13:30:01;6.50;;;1.52;;
789;SDS011;378;48.844;9.156;2023-12-20T13:32:30;2.63;;;0.80;;
789;SDS011;378;48.844;9.156;2023-12-20T13:34:57;7.93;;;1.00;;
789;SDS011;378;48.844;9.156;2023-12-20T13:37:27;9.82;;;1.40;;
789;SDS011;378;48.844;9.156;2023-12-20T13:39:55;3.65;;;1.30;;
789;SDS011;378;48.844;9.156;2023-12-20T13:42:24;2.15;;;1.00;;
789;SDS011;378;48.844;9.156;2023-12-20T13:44:52;6.97;;;1.20;;
789;SDS011;378;48.844;9.156;2023-12-20T13:47:19;6.32;;;1.27;;
789;SDS011;378;48.844;9.156;2023-12-20T13:49:46;5.80;;;1.30;;
789;SDS011;378;48.844;9.156;2023-12-20T13:52:13;5.30;;;1.40;;
789;SDS011;378;48.844;9.156;2023-12-20T13:54:39;4.78;;;1.52;;
789;SDS011;378;48.844;9.156;2023-12-20T13:57:08;6.43;;;1.45;;
789;SDS011;378;48.844;9.156;2023-12-20T13:59:34;3.78;;;1.83;;
789;SDS011;378;48.844;9.156;2023-12-20T14:02:01;9.10;;;1.13;;
789;SDS011;378;48.844;9.156;2023-12-20T14:04:29;3.35;;;1.13;;
789;SDS011;378;48.844;9.156;2023-12-20T14:06:56;4.00;;;1.23;;
789;SDS011;378;48.844;9.156;2023-12-20T14:09:23;7.00;;;1.42;;
789;SDS011;378;48.844;9.156;2023-12-20T14:11:50;5.15;;;1.20;;
789;SDS011;378;48.844;9.156;2023-12-20T14:14:18;5.40;;;1.35;;
789;SDS011;378;48.844;9.156;2023-12-20T14:16:45;7.47;;;1.83;;
789;SDS011;378;48.844;9.156;2023-12-20T14:19:12;11.30;;;2.60;;
789;SDS011;378;48.844;9.156;2023-12-20T14:21:39;10.63;;;2.47;;
789;SDS011;378;48.844;9.156;2023-12-20T14:24:06;9.32;;;1.52;;
789;SDS011;378;48.844;9.156;2023-12-20T14:26:33;4.60;;;1.40;;
789;SDS011;378;48.844;9.156;2023-12-20T14:29:00;4.50;;;1.40;;
789;SDS011;378;48.844;9.156;2023-12-20T14:31:28;6.78;;;1.73;;
789;SDS011;378;48.844;9.156;2023-12-20T14:33:55;6.72;;;1.55;;
789;SDS011;378;48.844;9.156;2023-12-20T14:36:22;9.07;;;1.65;;
789;SDS011;378;48.844;9.156;2023-12-20T14:38:49;8.80;;;1.77;;
789;SDS011;378;48.844;9.156;2023-12-20T14:41:16;10.05;;;2.35;;
789;SDS011;378;48.844;9.156;2023-12-20T14:43:44;7.78;;;1.70;;
789;SDS011;378;48.844;9.156;2023-12-20T14:46:13;6.53;;;2.00;;
789;SDS011;378;48.844;9.156;2023-12-20T14:48:41;6.15;;;1.48;;
789;SDS011;378;48.844;9.156;2023-12-20T14:51:08;6.60;;;1.52;;
789;SDS011;378;48.844;9.156;2023-12-20T14:53:35;9.20;;;1.75;;
789;SDS011;378;48.844;9.156;2023-12-20T14:56:02;10.05;;;1.60;;
789;SDS011;378;48.844;9.156;2023-12-20T14:58:30;4.65;;;1.35;;
789;SDS011;378;48.844;9.156;2023-12-20T15:00:58;4.32;;;1.38;;
789;SDS011;378;48.844;9.156;2023-12-20T15:03:25;6.63;;;1.58;;
789;SDS011;378;48.844;9.156;2023-12-20T15:05:53;5.30;;;1.75;;
789;SDS011;378;48.844;9.156;2023-12-20T15:08:23;11.82;;;2.15;;
789;SDS011;378;48.844;9.156;2023-12-20T15:10:50;4.80;;;1.58;;
789;SDS011;378;48.844;9.156;2023-12-20T15:13:17;7.85;;;1.73;;
789;SDS011;378;48.844;9.156;2023-12-20T15:15:44;6.15;;;2.00;;
789;SDS011;378;48.844;9.156;2023-12-20T15:18:12;3.67;;;1.65;;
789;SDS011;378;48.844;9.156;2023-12-20T15:20:39;7.28;;;1.88;;
789;SDS011;378;48.844;9.156;2023-12-20T15:23:10;10.02;;;2.45;;
789;SDS011;378;48.844;9.156;2023-12-20T15:25:37;8.60;;;2.00;;
789;SDS011;378;48.844;9.156;2023-12-20T15:28:04;6.70;;;1.80;;
789;SDS011;378;48.844;9.156;2023-12-20T15:30:31;6.43;;;1.42;;
789;SDS011;378;48.844;9.156;2023-12-20T15:32:57;4.07;;;1.52;;
789;SDS011;378;48.844;9.156;2023-12-20T15:35:25;11.98;;;2.10;;
789;SDS011;378;48.844;9.156;2023-12-20T15:37:52;6.05;;;1.63;;
789;SDS011;378;48.844;9.156;2023-12-20T15:40:20;8.63;;;1.40;;
789;SDS011;378;48.844;9.156;2023-12-20T15:42:47;5.53;;;1.40;;
789;SDS011;378;48.844;9.156;2023-12-20T15:45:14;6.47;;;1.98;;
789;SDS011;378;48.844;9.156;2023-12-20T15:47:41;6.90;;;1.90;;
789;SDS011;378;48.844;9.156;2023-12-20T15:50:07;5.95;;;1.80;;
789;SDS011;378;48.844;9.156;2023-12-20T15:52:34;7.78;;;1.75;;
789;SDS011;378;48.844;9.156;2023-12-20T15:55:02;6.55;;;1.45;;
789;SDS011;378;48.844;9.156;2023-12-20T15:57:31;7.20;;;1.95;;
789;SDS011;378;48.844;9.156;2023-12-20T15:59:59;5.80;;;1.70;;